sensor_id;sensor_type;location;lat;lon;timestamp;P1;durP1;ratioP1;P2;durP2;ratioP2
52740;SDS011;38634;52.138;9.912;2022-10-22T00:02:25;5.82;;;2.50;;
52740;SDS011;38634;52.138;9.912;2022-10-22T00:05:10;5.65;;;2.40;;
52740;SDS011;38634;52.138;9.912;2022-10-22T00:07:55;3.25;;;1.65;;
52740;SDS011;38634;52.138;9.912;2022-10-22T00:10:39;4.43;;;2.25;;
52740;SDS011;38634;52.138;9.912;2022-10-22T00:13:24;4.38;;;1.92;;
52740;SDS011;38634;52.138;9.912;2022-10-22T00:16:09;8.38;;;3.03;;
52740;SDS011;38634;52.138;9.912;2022-10-22T00:18:53;7.60;;;2.30;;
52740;SDS011;38634;52.138;9.912;2022-10-22T00:21:38;7.32;;;2.47;;
52740;SDS011;38634;52.138;9.912;2022-10-22T00:24:23;6.75;;;2.20;;
52740;SDS011;38634;52.138;9.912;2022-10-22T00:27:09;5.10;;;2.30;;
52740;SDS011;38634;52.138;9.912;2022-10-22T00:29:54;3.38;;;1.70;;
52740;SDS011;38634;52.138;9.912;2022-10-22T00:32:39;4.10;;;1.90;;
52740;SDS011;38634;52.138;9.912;2022-10-22T00:35:24;4.10;;;2.00;;
52740;SDS011;38634;52.138;9.912;2022-10-22T00:38:08;3.53;;;2.10;;
52740;SDS011;38634;52.138;9.912;2022-10-22T00:40:53;4.35;;;2.25;;
52740;SDS011;38634;52.138;9.912;2022-10-22T00:46:43;4.65;;;2.20;;
52740;SDS011;38634;52.138;9.912;2022-10-22T00:49:27;6.28;;;2.90;;
52740;SDS011;38634;52.138;9.912;2022-10-22T00:52:12;4.88;;;2.35;;
52740;SDS011;38634;52.138;9.912;2022-10-22T00:54:57;5.68;;;2.70;;
52740;SDS011;38634;52.138;9.912;2022-10-22T00:57:41;7.50;;;2.50;;
52740;SDS011;38634;52.138;9.912;2022-10-22T01:00:26;5.00;;;2.75;;
52740;SDS011;38634;52.138;9.912;2022-10-22T01:03:11;4.00;;;2.42;;
52740;SDS011;38634;52.138;9.912;2022-10-22T01:05:56;6.78;;;2.55;;
52740;SDS011;38634;52.138;9.912;2022-10-22T01:08:52;5.40;;;2.55;;
52740;SDS011;38634;52.138;9.912;2022-10-22T01:16:09;4.93;;;2.40;;
52740;SDS011;38634;52.138;9.912;2022-10-22T01:22:37;5.88;;;2.38;;
52740;SDS011;38634;52.138;9.912;2022-10-22T01:25:30;2.80;;;1.50;;
52740;SDS011;38634;52.138;9.912;2022-10-22T01:31:53;1.58;;;1.48;;
52740;SDS011;38634;52.138;9.912;2022-10-22T01:34:47;1.90;;;1.17;;
52740;SDS011;38634;52.138;9.912;2022-10-22T01:37:47;4.20;;;2.05;;
52740;SDS011;38634;52.138;9.912;2022-10-22T01:40:35;3.70;;;2.08;;
52740;SDS011;38634;52.138;9.912;2022-10-22T01:43:20;3.55;;;1.50;;
52740;SDS011;38634;52.138;9.912;2022-10-22T01:46:05;1.77;;;1.25;;
52740;SDS011;38634;52.138;9.912;2022-10-22T01:54:45;2.63;;;1.60;;
52740;SDS011;38634;52.138;9.912;2022-10-22T02:04:40;5.55;;;2.30;;
52740;SDS011;38634;52.138;9.912;2022-10-22T13:10:54;9.55;;;2.80;;
52740;SDS011;38634;52.138;9.912;2022-10-22T13:16:24;20.27;;;6.55;;
52740;SDS011;38634;52.138;9.912;2022-10-22T13:22:36;9.63;;;3.65;;
52740;SDS011;38634;52.138;9.912;2022-10-22T13:25:27;25.42;;;7.20;;
52740;SDS011;38634;52.138;9.912;2022-10-22T13:28:19;9.88;;;3.83;;
52740;SDS011;38634;52.138;9.912;2022-10-22T13:31:17;22.63;;;7.30;;
52740;SDS011;38634;52.138;9.912;2022-10-22T13:34:05;11.00;;;3.47;;
52740;SDS011;38634;52.138;9.912;2022-10-22T13:36:55;17.92;;;6.63;;
52740;SDS011;38634;52.138;9.912;2022-10-22T13:39:39;20.85;;;7.30;;
52740;SDS011;38634;52.138;9.912;2022-10-22T13:42:24;9.73;;;3.75;;
52740;SDS011;38634;52.138;9.912;2022-10-22T13:45:09;10.77;;;4.57;;
52740;SDS011;38634;52.138;9.912;2022-10-22T13:47:54;21.70;;;7.40;;
52740;SDS011;38634;52.138;9.912;2022-10-22T13:50:39;22.52;;;7.90;;
52740;SDS011;38634;52.138;9.912;2022-10-22T13:53:24;14.85;;;5.85;;
52740;SDS011;38634;52.138;9.912;2022-10-22T13:56:14;9.93;;;4.57;;
52740;SDS011;38634;52.138;9.912;2022-10-22T13:59:00;21.75;;;7.57;;
52740;SDS011;38634;52.138;9.912;2022-10-22T14:01:45;21.85;;;7.75;;
52740;SDS011;38634;52.138;9.912;2022-10-22T14:04:30;9.30;;;4.55;;
52740;SDS011;38634;52.138;9.912;2022-10-22T14:07:16;8.95;;;3.58;;
52740;SDS011;38634;52.138;9.912;2022-10-22T14:10:01;17.70;;;5.80;;
52740;SDS011;38634;52.138;9.912;2022-10-22T14:12:56;7.82;;;3.75;;
52740;SDS011;38634;52.138;9.912;2022-10-22T14:15:41;8.15;;;3.55;;
52740;SDS011;38634;52.138;9.912;2022-10-22T14:18:27;17.58;;;7.18;;
52740;SDS011;38634;52.138;9.912;2022-10-22T14:21:14;13.73;;;6.40;;
52740;SDS011;38634;52.138;9.912;2022-10-22T14:23:59;11.15;;;4.38;;
52740;SDS011;38634;52.138;9.912;2022-10-22T14:26:44;9.80;;;3.70;;
52740;SDS011;38634;52.138;9.912;2022-10-22T14:29:29;15.65;;;5.35;;
52740;SDS011;38634;52.138;9.912;2022-10-22T14:32:15;14.85;;;6.15;;
52740;SDS011;38634;52.138;9.912;2022-10-22T14:35:03;10.32;;;4.28;;
52740;SDS011;38634;52.138;9.912;2022-10-22T14:37:48;7.28;;;3.35;;
52740;SDS011;38634;52.138;9.912;2022-10-22T14:40:32;12.13;;;5.05;;
52740;SDS011;38634;52.138;9.912;2022-10-22T14:43:19;13.07;;;6.10;;
52740;SDS011;38634;52.138;9.912;2022-10-22T14:46:10;10.90;;;4.55;;
52740;SDS011;38634;52.138;9.912;2022-10-22T14:48:56;9.75;;;3.67;;
52740;SDS011;38634;52.138;9.912;2022-10-22T14:51:40;17.95;;;6.28;;
52740;SDS011;38634;52.138;9.912;2022-10-22T14:54:25;11.10;;;5.10;;
52740;SDS011;38634;52.138;9.912;2022-10-22T14:57:10;8.30;;;4.28;;
52740;SDS011;38634;52.138;9.912;2022-10-22T14:59:57;10.57;;;3.97;;
52740;SDS011;38634;52.138;9.912;2022-10-22T15:02:41;11.93;;;5.45;;
52740;SDS011;38634;52.138;9.912;2022-10-22T15:05:26;14.57;;;6.70;;
52740;SDS011;38634;52.138;9.912;2022-10-22T15:08:11;9.27;;;4.78;;
52740;SDS011;38634;52.138;9.912;2022-10-22T15:11:03;7.53;;;3.40;;
52740;SDS011;38634;52.138;9.912;2022-10-22T15:13:50;15.55;;;6.47;;
52740;SDS011;38634;52.138;9.912;2022-10-22T15:16:35;12.25;;;5.68;;
52740;SDS011;38634;52.138;9.912;2022-10-22T15:19:19;9.77;;;3.65;;
52740;SDS011;38634;52.138;9.912;2022-10-22T15:22:04;7.90;;;3.22;;
52740;SDS011;38634;52.138;9.912;2022-10-22T15:24:49;11.32;;;4.85;;
52740;SDS011;38634;52.138;9.912;2022-10-22T15:27:36;14.45;;;6.75;;
52740;SDS011;38634;52.138;9.912;2022-10-22T15:30:20;7.90;;;4.38;;
52740;SDS011;38634;52.138;9.912;2022-10-22T15:33:05;6.22;;;3.33;;
52740;SDS011;38634;52.138;9.912;2022-10-22T15:35:50;7.35;;;3.55;;
52740;SDS011;38634;52.138;9.912;2022-10-22T15:38:35;13.32;;;6.75;;
52740;SDS011;38634;52.138;9.912;2022-10-22T15:41:19;12.02;;;6.00;;
52740;SDS011;38634;52.138;9.912;2022-10-22T15:44:04;8.60;;;3.70;;
52740;SDS011;38634;52.138;9.912;2022-10-22T15:46:50;7.57;;;3.25;;
52740;SDS011;38634;52.138;9.912;2022-10-22T15:49:36;12.30;;;5.47;;
52740;SDS011;38634;52.138;9.912;2022-10-22T15:52:22;15.00;;;6.88;;
52740;SDS011;38634;52.138;9.912;2022-10-22T15:55:07;10.75;;;4.18;;
52740;SDS011;38634;52.138;9.912;2022-10-22T15:57:53;8.65;;;3.85;;
52740;SDS011;38634;52.138;9.912;2022-10-22T16:00:39;9.80;;;4.68;;
52740;SDS011;38634;52.138;9.912;2022-10-22T16:03:24;13.27;;;6.30;;
52740;SDS011;38634;52.138;9.912;2022-10-22T16:06:08;12.73;;;5.72;;
52740;SDS011;38634;52.138;9.912;2022-10-22T16:08:53;17.77;;;5.28;;
52740;SDS011;38634;52.138;9.912;2022-10-22T16:11:40;23.58;;;6.30;;
52740;SDS011;38634;52.138;9.912;2022-10-22T16:14:25;29.20;;;7.60;;
52740;SDS011;38634;52.138;9.912;2022-10-22T16:17:11;24.80;;;6.50;;
52740;SDS011;38634;52.138;9.912;2022-10-22T16:19:56;16.92;;;4.88;;
52740;SDS011;38634;52.138;9.912;2022-10-22T16:22:43;13.77;;;4.63;;
52740;SDS011;38634;52.138;9.912;2022-10-22T16:25:28;29.73;;;7.85;;
52740;SDS011;38634;52.138;9.912;2022-10-22T16:28:12;29.23;;;7.80;;
52740;SDS011;38634;52.138;9.912;2022-10-22T16:31:03;14.48;;;4.40;;
52740;SDS011;38634;52.138;9.912;2022-10-22T16:33:49;20.80;;;5.57;;
52740;SDS011;38634;52.138;9.912;2022-10-22T16:36:34;33.03;;;8.75;;
52740;SDS011;38634;52.138;9.912;2022-10-22T16:39:19;21.70;;;5.82;;
52740;SDS011;38634;52.138;9.912;2022-10-22T16:42:04;18.77;;;4.90;;
52740;SDS011;38634;52.138;9.912;2022-10-22T16:44:49;16.65;;;4.97;;
52740;SDS011;38634;52.138;9.912;2022-10-22T16:47:33;22.73;;;6.30;;
52740;SDS011;38634;52.138;9.912;2022-10-22T16:50:18;32.50;;;8.40;;
52740;SDS011;38634;52.138;9.912;2022-10-22T16:53:02;28.20;;;7.22;;
52740;SDS011;38634;52.138;9.912;2022-10-22T16:55:47;13.98;;;4.38;;
52740;SDS011;38634;52.138;9.912;2022-10-22T16:58:32;14.57;;;4.40;;
52740;SDS011;38634;52.138;9.912;2022-10-22T17:01:17;32.80;;;8.45;;
52740;SDS011;38634;52.138;9.912;2022-10-22T17:04:08;25.63;;;6.70;;
52740;SDS011;38634;52.138;9.912;2022-10-22T17:06:53;17.75;;;4.95;;
52740;SDS011;38634;52.138;9.912;2022-10-22T17:09:38;6.32;;;3.15;;
52740;SDS011;38634;52.138;9.912;2022-10-22T17:12:22;13.43;;;6.25;;
52740;SDS011;38634;52.138;9.912;2022-10-22T17:15:07;5.97;;;2.45;;
52740;SDS011;38634;52.138;9.912;2022-10-22T17:17:52;6.30;;;2.95;;
52740;SDS011;38634;52.138;9.912;2022-10-22T17:20:40;6.38;;;2.28;;
52740;SDS011;38634;52.138;9.912;2022-10-22T17:23:26;5.25;;;2.47;;
52740;SDS011;38634;52.138;9.912;2022-10-22T17:26:17;7.05;;;3.55;;
52740;SDS011;38634;52.138;9.912;2022-10-22T17:29:04;8.13;;;3.83;;
52740;SDS011;38634;52.138;9.912;2022-10-22T17:31:49;8.80;;;3.55;;
52740;SDS011;38634;52.138;9.912;2022-10-22T17:34:33;12.68;;;4.07;;
52740;SDS011;38634;52.138;9.912;2022-10-22T17:37:18;11.93;;;4.75;;
52740;SDS011;38634;52.138;9.912;2022-10-22T17:40:03;8.82;;;3.67;;
52740;SDS011;38634;52.138;9.912;2022-10-22T17:42:49;12.20;;;4.25;;
52740;SDS011;38634;52.138;9.912;2022-10-22T17:45:33;13.15;;;4.45;;
52740;SDS011;38634;52.138;9.912;2022-10-22T17:48:18;13.63;;;4.15;;
52740;SDS011;38634;52.138;9.912;2022-10-22T17:51:06;8.27;;;3.83;;
52740;SDS011;38634;52.138;9.912;2022-10-22T17:53:51;10.68;;;4.15;;
52740;SDS011;38634;52.138;9.912;2022-10-22T17:56:36;9.45;;;4.00;;
52740;SDS011;38634;52.138;9.912;2022-10-22T17:59:22;12.52;;;3.67;;
52740;SDS011;38634;52.138;9.912;2022-10-22T18:02:08;10.10;;;3.65;;
52740;SDS011;38634;52.138;9.912;2022-10-22T18:04:58;13.82;;;3.97;;
52740;SDS011;38634;52.138;9.912;2022-10-22T18:07:42;12.85;;;4.03;;
52740;SDS011;38634;52.138;9.912;2022-10-22T18:10:27;13.23;;;4.18;;
52740;SDS011;38634;52.138;9.912;2022-10-22T18:13:12;13.18;;;4.05;;
52740;SDS011;38634;52.138;9.912;2022-10-22T18:15:56;16.05;;;4.35;;
52740;SDS011;38634;52.138;9.912;2022-10-22T18:18:43;12.73;;;4.28;;
52740;SDS011;38634;52.138;9.912;2022-10-22T18:21:30;13.65;;;5.15;;
52740;SDS011;38634;52.138;9.912;2022-10-22T18:24:15;4.43;;;2.60;;
52740;SDS011;38634;52.138;9.912;2022-10-22T18:27:00;6.82;;;3.20;;
52740;SDS011;38634;52.138;9.912;2022-10-22T18:29:47;13.98;;;4.60;;
52740;SDS011;38634;52.138;9.912;2022-10-22T18:32:33;13.68;;;4.13;;
52740;SDS011;38634;52.138;9.912;2022-10-22T18:35:17;14.43;;;4.45;;
52740;SDS011;38634;52.138;9.912;2022-10-22T18:38:02;12.88;;;4.07;;
52740;SDS011;38634;52.138;9.912;2022-10-22T18:40:47;12.18;;;3.63;;
52740;SDS011;38634;52.138;9.912;2022-10-22T18:43:33;12.23;;;3.90;;
52740;SDS011;38634;52.138;9.912;2022-10-22T18:46:18;8.50;;;3.55;;
52740;SDS011;38634;52.138;9.912;2022-10-22T18:49:03;5.82;;;3.20;;
52740;SDS011;38634;52.138;9.912;2022-10-22T18:51:49;5.53;;;2.88;;
52740;SDS011;38634;52.138;9.912;2022-10-22T18:54:37;13.27;;;4.38;;
52740;SDS011;38634;52.138;9.912;2022-10-22T18:57:22;11.55;;;4.18;;
52740;SDS011;38634;52.138;9.912;2022-10-22T19:00:07;14.57;;;4.63;;
52740;SDS011;38634;52.138;9.912;2022-10-22T19:02:52;14.95;;;4.22;;
52740;SDS011;38634;52.138;9.912;2022-10-22T19:05:47;9.20;;;3.33;;
52740;SDS011;38634;52.138;9.912;2022-10-22T19:08:35;12.43;;;4.60;;
52740;SDS011;38634;52.138;9.912;2022-10-22T19:11:19;6.50;;;3.63;;
52740;SDS011;38634;52.138;9.912;2022-10-22T19:14:04;7.80;;;3.78;;
52740;SDS011;38634;52.138;9.912;2022-10-22T19:16:49;9.50;;;3.88;;
52740;SDS011;38634;52.138;9.912;2022-10-22T19:19:33;6.90;;;3.30;;
52740;SDS011;38634;52.138;9.912;2022-10-22T19:22:18;7.72;;;3.65;;
52740;SDS011;38634;52.138;9.912;2022-10-22T19:25:03;13.27;;;4.75;;
52740;SDS011;38634;52.138;9.912;2022-10-22T19:27:48;11.88;;;4.75;;
52740;SDS011;38634;52.138;9.912;2022-10-22T19:30:33;9.60;;;4.30;;
52740;SDS011;38634;52.138;9.912;2022-10-22T19:33:18;8.77;;;4.55;;
52740;SDS011;38634;52.138;9.912;2022-10-22T19:36:07;9.77;;;4.05;;
52740;SDS011;38634;52.138;9.912;2022-10-22T19:38:54;13.98;;;4.80;;
52740;SDS011;38634;52.138;9.912;2022-10-22T19:41:39;9.40;;;3.85;;
52740;SDS011;38634;52.138;9.912;2022-10-22T19:44:24;10.55;;;4.28;;
52740;SDS011;38634;52.138;9.912;2022-10-22T19:47:08;11.05;;;3.60;;
52740;SDS011;38634;52.138;9.912;2022-10-22T19:49:54;9.65;;;3.53;;
52740;SDS011;38634;52.138;9.912;2022-10-22T19:52:39;7.25;;;3.95;;
52740;SDS011;38634;52.138;9.912;2022-10-22T19:55:23;11.23;;;4.10;;
52740;SDS011;38634;52.138;9.912;2022-10-22T19:58:08;10.63;;;3.83;;
52740;SDS011;38634;52.138;9.912;2022-10-22T20:00:53;9.88;;;4.18;;
52740;SDS011;38634;52.138;9.912;2022-10-22T20:03:38;12.20;;;3.83;;
52740;SDS011;38634;52.138;9.912;2022-10-22T20:06:23;15.20;;;4.57;;
52740;SDS011;38634;52.138;9.912;2022-10-22T20:09:07;13.60;;;5.10;;
52740;SDS011;38634;52.138;9.912;2022-10-22T20:11:53;8.25;;;3.83;;
52740;SDS011;38634;52.138;9.912;2022-10-22T20:14:38;7.40;;;3.97;;
52740;SDS011;38634;52.138;9.912;2022-10-22T20:17:23;8.50;;;4.28;;
52740;SDS011;38634;52.138;9.912;2022-10-22T20:20:07;10.82;;;4.57;;
52740;SDS011;38634;52.138;9.912;2022-10-22T20:22:52;10.55;;;4.00;;
52740;SDS011;38634;52.138;9.912;2022-10-22T20:25:40;8.38;;;3.85;;
52740;SDS011;38634;52.138;9.912;2022-10-22T20:28:27;11.93;;;3.92;;
52740;SDS011;38634;52.138;9.912;2022-10-22T20:31:13;9.48;;;4.70;;
52740;SDS011;38634;52.138;9.912;2022-10-22T20:34:01;7.70;;;3.85;;
52740;SDS011;38634;52.138;9.912;2022-10-22T20:36:46;8.15;;;3.72;;
52740;SDS011;38634;52.138;9.912;2022-10-22T20:39:31;7.47;;;3.67;;
52740;SDS011;38634;52.138;9.912;2022-10-22T20:42:16;9.07;;;3.83;;
52740;SDS011;38634;52.138;9.912;2022-10-22T20:45:00;9.93;;;3.85;;
52740;SDS011;38634;52.138;9.912;2022-10-22T20:47:45;5.72;;;3.15;;
52740;SDS011;38634;52.138;9.912;2022-10-22T20:50:30;10.40;;;4.60;;
52740;SDS011;38634;52.138;9.912;2022-10-22T20:53:14;7.85;;;3.80;;
52740;SDS011;38634;52.138;9.912;2022-10-22T20:55:59;8.20;;;4.03;;
52740;SDS011;38634;52.138;9.912;2022-10-22T20:58:44;6.82;;;3.15;;
52740;SDS011;38634;52.138;9.912;2022-10-22T21:01:36;8.48;;;4.10;;
52740;SDS011;38634;52.138;9.912;2022-10-22T21:04:31;15.30;;;4.28;;
52740;SDS011;38634;52.138;9.912;2022-10-22T21:07:16;10.65;;;3.97;;
52740;SDS011;38634;52.138;9.912;2022-10-22T21:10:01;21.55;;;3.78;;
52740;SDS011;38634;52.138;9.912;2022-10-22T21:12:46;5.72;;;2.90;;
52740;SDS011;38634;52.138;9.912;2022-10-22T21:15:30;6.40;;;3.88;;
52740;SDS011;38634;52.138;9.912;2022-10-22T21:18:15;7.03;;;3.03;;
52740;SDS011;38634;52.138;9.912;2022-10-22T21:21:00;13.90;;;4.32;;
52740;SDS011;38634;52.138;9.912;2022-10-22T21:23:45;6.45;;;3.13;;
52740;SDS011;38634;52.138;9.912;2022-10-22T21:26:36;8.98;;;3.78;;
52740;SDS011;38634;52.138;9.912;2022-10-22T21:29:22;7.47;;;3.35;;
52740;SDS011;38634;52.138;9.912;2022-10-22T21:32:06;8.05;;;3.35;;
52740;SDS011;38634;52.138;9.912;2022-10-22T21:34:51;7.72;;;3.65;;
52740;SDS011;38634;52.138;9.912;2022-10-22T21:37:36;8.40;;;3.88;;
52740;SDS011;38634;52.138;9.912;2022-10-22T21:40:21;6.47;;;2.95;;
52740;SDS011;38634;52.138;9.912;2022-10-22T21:43:05;7.82;;;3.15;;
52740;SDS011;38634;52.138;9.912;2022-10-22T21:45:50;6.32;;;2.80;;
52740;SDS011;38634;52.138;9.912;2022-10-22T21:48:35;9.55;;;4.35;;
52740;SDS011;38634;52.138;9.912;2022-10-22T21:51:21;7.65;;;3.85;;
52740;SDS011;38634;52.138;9.912;2022-10-22T21:54:06;7.30;;;3.50;;
52740;SDS011;38634;52.138;9.912;2022-10-22T21:56:51;6.30;;;2.47;;
52740;SDS011;38634;52.138;9.912;2022-10-22T21:59:35;8.27;;;2.55;;
52740;SDS011;38634;52.138;9.912;2022-10-22T22:02:20;12.88;;;3.15;;
52740;SDS011;38634;52.138;9.912;2022-10-22T22:05:04;6.43;;;2.78;;
52740;SDS011;38634;52.138;9.912;2022-10-22T22:07:49;5.93;;;2.70;;
52740;SDS011;38634;52.138;9.912;2022-10-22T22:10:33;5.78;;;2.53;;
52740;SDS011;38634;52.138;9.912;2022-10-22T22:13:19;6.85;;;2.80;;
52740;SDS011;38634;52.138;9.912;2022-10-22T22:16:11;7.70;;;3.20;;
52740;SDS011;38634;52.138;9.912;2022-10-22T22:19:02;7.00;;;3.38;;
52740;SDS011;38634;52.138;9.912;2022-10-22T22:21:50;12.65;;;5.63;;
52740;SDS011;38634;52.138;9.912;2022-10-22T22:24:36;6.82;;;3.22;;
52740;SDS011;38634;52.138;9.912;2022-10-22T22:27:22;8.02;;;3.15;;
52740;SDS011;38634;52.138;9.912;2022-10-22T22:30:06;6.40;;;3.08;;
52740;SDS011;38634;52.138;9.912;2022-10-22T22:32:52;6.72;;;3.30;;
52740;SDS011;38634;52.138;9.912;2022-10-22T22:35:37;7.10;;;3.65;;
52740;SDS011;38634;52.138;9.912;2022-10-22T22:38:21;5.78;;;2.97;;
52740;SDS011;38634;52.138;9.912;2022-10-22T22:41:06;6.47;;;2.83;;
52740;SDS011;38634;52.138;9.912;2022-10-22T22:43:52;8.90;;;4.03;;
52740;SDS011;38634;52.138;9.912;2022-10-22T22:46:36;9.23;;;2.92;;
52740;SDS011;38634;52.138;9.912;2022-10-22T22:49:21;11.55;;;3.67;;
52740;SDS011;38634;52.138;9.912;2022-10-22T22:52:06;7.43;;;2.22;;
52740;SDS011;38634;52.138;9.912;2022-10-22T22:54:50;10.18;;;3.08;;
52740;SDS011;38634;52.138;9.912;2022-10-22T22:57:35;15.75;;;4.28;;
52740;SDS011;38634;52.138;9.912;2022-10-22T23:00:19;16.33;;;3.58;;
52740;SDS011;38634;52.138;9.912;2022-10-22T23:03:04;10.85;;;3.33;;
52740;SDS011;38634;52.138;9.912;2022-10-22T23:05:49;11.48;;;3.03;;
52740;SDS011;38634;52.138;9.912;2022-10-22T23:08:33;11.63;;;3.13;;
52740;SDS011;38634;52.138;9.912;2022-10-22T23:11:18;15.13;;;5.18;;
52740;SDS011;38634;52.138;9.912;2022-10-22T23:14:04;15.63;;;3.50;;
52740;SDS011;38634;52.138;9.912;2022-10-22T23:16:51;8.57;;;3.17;;
52740;SDS011;38634;52.138;9.912;2022-10-22T23:19:35;9.38;;;3.35;;
52740;SDS011;38634;52.138;9.912;2022-10-22T23:22:20;12.10;;;4.00;;
52740;SDS011;38634;52.138;9.912;2022-10-22T23:25:05;7.40;;;3.08;;
52740;SDS011;38634;52.138;9.912;2022-10-22T23:27:50;12.70;;;3.33;;
52740;SDS011;38634;52.138;9.912;2022-10-22T23:30:39;12.77;;;3.75;;
52740;SDS011;38634;52.138;9.912;2022-10-22T23:33:28;11.83;;;3.60;;
52740;SDS011;38634;52.138;9.912;2022-10-22T23:36:13;17.20;;;4.75;;
52740;SDS011;38634;52.138;9.912;2022-10-22T23:38:57;11.80;;;3.45;;
52740;SDS011;38634;52.138;9.912;2022-10-22T23:41:42;10.05;;;3.25;;
52740;SDS011;38634;52.138;9.912;2022-10-22T23:44:27;9.60;;;3.97;;
52740;SDS011;38634;52.138;9.912;2022-10-22T23:47:12;12.68;;;3.13;;
52740;SDS011;38634;52.138;9.912;2022-10-22T23:49:56;9.98;;;3.22;;
52740;SDS011;38634;52.138;9.912;2022-10-22T23:52:41;12.05;;;3.08;;
52740;SDS011;38634;52.138;9.912;2022-10-22T23:55:26;7.95;;;2.30;;
52740;SDS011;38634;52.138;9.912;2022-10-22T23:58:10;8.73;;;2.85;;
